createdAt,value
2022-10-06T00:03:46.373Z,100964.50
2022-10-06T00:07:48.352Z,100963.38
2022-10-06T00:11:50.031Z,100960.81
2022-10-06T00:15:52.454Z,100962.50
2022-10-06T00:19:54.222Z,100951.69
2022-10-06T00:23:56.039Z,100942.28
2022-10-06T00:27:57.714Z,100943.81
2022-10-06T00:31:59.738Z,100940.50
2022-10-06T00:36:01.992Z,100936.25
2022-10-06T00:40:09.691Z,100938.56
2022-10-06T00:44:11.427Z,100936.06
2022-10-06T00:48:24.018Z,100926.78
2022-10-06T00:52:29.363Z,100935.03
2022-10-06T00:56:31.569Z,100936.34
2022-10-06T01:00:33.665Z,100938.81
2022-10-06T01:04:38.235Z,100939.72
2022-10-06T01:08:40.399Z,100928.91
2022-10-06T01:12:42.886Z,100934.44
2022-10-06T01:16:49.543Z,100936.47
2022-10-06T01:21:03.468Z,100936.97
2022-10-06T01:25:08.286Z,100937.19
2022-10-06T01:29:10.475Z,100930.16
2022-10-06T01:33:13.036Z,100928.47
2022-10-06T01:37:16.284Z,100927.41
2022-10-06T01:41:18.103Z,100927.25
2022-10-06T01:45:21.444Z,100932.88
2022-10-06T01:49:23.103Z,100937.19
2022-10-06T01:53:25.173Z,100927.41
2022-10-06T01:57:27.104Z,100928.19
2022-10-06T02:01:29.179Z,100938.66
2022-10-06T02:05:31.300Z,100937.19
2022-10-06T02:09:33.461Z,100932.22
2022-10-06T02:13:39.139Z,100932.84
2022-10-06T02:17:41.004Z,100925.91
2022-10-06T02:21:42.871Z,100932.97
2022-10-06T02:25:44.800Z,100925.56
2022-10-06T02:29:46.777Z,100924.78
2022-10-06T02:33:49.961Z,100923.06
2022-10-06T02:38:18.316Z,100926.56
2022-10-06T02:42:20.319Z,100917.28
2022-10-06T02:46:22.615Z,100915.56
2022-10-06T02:50:26.399Z,100914.81
2022-10-06T02:54:28.206Z,100912.69
2022-10-06T02:58:31.124Z,100923.78
2022-10-06T03:02:37.950Z,100923.97
2022-10-06T03:06:40.158Z,100927.41
2022-10-06T03:10:46.367Z,100929.34
2022-10-06T03:14:48.644Z,100934.13
2022-10-06T03:18:53.163Z,100942.72
2022-10-06T03:23:01.827Z,100937.34
2022-10-06T03:27:03.755Z,100935.97
2022-10-06T03:31:06.355Z,100933.00
2022-10-06T03:35:08.731Z,100945.44
2022-10-06T03:39:10.717Z,100946.25
2022-10-06T03:43:13.316Z,100957.97
2022-10-06T03:47:17.517Z,100951.63
2022-10-06T03:51:23.740Z,100955.09
2022-10-06T03:55:26.336Z,100967.22
2022-10-06T03:59:31.510Z,100959.00
2022-10-06T04:03:34.583Z,100962.75
2022-10-06T04:07:37.109Z,100967.91
2022-10-06T04:11:40.562Z,100966.59
2022-10-06T04:15:43.500Z,100966.53
2022-10-06T04:19:45.528Z,100967.97
2022-10-06T04:24:13.586Z,100962.16
2022-10-06T04:28:18.502Z,100972.03
2022-10-06T04:32:20.513Z,100967.88
2022-10-06T04:36:31.327Z,100964.00
2022-10-06T04:40:33.517Z,100968.09
2022-10-06T04:44:35.427Z,100960.31
2022-10-06T04:48:38.228Z,100977.16
2022-10-06T04:52:40.166Z,100980.03
2022-10-06T04:56:42.029Z,100984.72
2022-10-06T05:00:45.145Z,100994.44
2022-10-06T05:04:46.887Z,100992.16
2022-10-06T05:08:53.567Z,100994.81
2022-10-06T05:12:57.454Z,101008.84
2022-10-06T05:16:59.655Z,101019.25
2022-10-06T05:21:07.546Z,101022.72
2022-10-06T05:25:09.703Z,101031.41
2022-10-06T05:29:11.487Z,101038.03
2022-10-06T05:33:14.332Z,101043.03
2022-10-06T05:37:16.161Z,101042.19
2022-10-06T05:41:24.108Z,101045.03
2022-10-06T05:45:26.665Z,101053.28
2022-10-06T05:49:28.640Z,101064.03
2022-10-06T05:53:35.770Z,101082.00
2022-10-06T05:57:39.129Z,101074.44
2022-10-06T06:01:43.307Z,101091.00
2022-10-06T06:05:52.479Z,101086.22
2022-10-06T06:09:54.334Z,101103.34
2022-10-06T06:13:56.919Z,101115.16
2022-10-06T06:17:58.730Z,101114.66
2022-10-06T06:22:00.828Z,101098.41
2022-10-06T06:26:06.858Z,101090.03
2022-10-06T06:30:12.545Z,101076.22
2022-10-06T06:34:15.764Z,101056.69
2022-10-06T06:38:18.954Z,101070.59
2022-10-06T06:42:22.587Z,101077.69
2022-10-06T06:46:45.815Z,101094.81
2022-10-06T06:51:15.257Z,101097.59
2022-10-06T06:55:17.402Z,101117.66
2022-10-06T06:59:20.444Z,101123.53
2022-10-06T07:03:45.233Z,101122.94
2022-10-06T07:07:47.684Z,101141.53
2022-10-06T07:11:50.250Z,101143.25
2022-10-06T07:16:13.768Z,101144.19
2022-10-06T07:20:34.725Z,101145.81
2022-10-06T07:24:55.501Z,101155.88
2022-10-06T07:29:01.341Z,101162.41
2022-10-06T07:33:05.090Z,101170.34
2022-10-06T07:37:09.070Z,101176.31
2022-10-06T07:41:19.688Z,101179.91
2022-10-06T07:45:39.309Z,101189.13
2022-10-06T07:49:46.369Z,101196.22
2022-10-06T07:54:13.258Z,101192.31
2022-10-06T07:58:26.048Z,101195.69
2022-10-06T08:02:31.475Z,101185.41
2022-10-06T08:06:36.707Z,101187.13
2022-10-06T08:10:38.337Z,101199.72
2022-10-06T08:14:40.338Z,101200.47
2022-10-06T08:18:46.380Z,101216.78
2022-10-06T08:22:49.040Z,101225.25
2022-10-06T08:26:50.866Z,101232.13
2022-10-06T08:30:52.815Z,101241.88
2022-10-06T08:34:54.780Z,101237.22
2022-10-06T08:38:56.947Z,101238.69
2022-10-06T08:43:01.155Z,101260.66
2022-10-06T08:47:11.757Z,101262.66
2022-10-06T08:51:33.818Z,101269.72
2022-10-06T08:56:04.273Z,101276.34
2022-10-06T09:00:11.524Z,101291.28
2022-10-06T09:04:28.246Z,101311.00
2022-10-06T09:08:53.666Z,101321.03
2022-10-06T09:13:06.636Z,101324.16
2022-10-06T09:17:18.807Z,101333.44
2022-10-06T09:21:30.563Z,101349.53
2022-10-06T09:25:33.532Z,101350.56
2022-10-06T09:29:35.599Z,101359.25
2022-10-06T09:33:39.921Z,101357.38
2022-10-06T09:37:56.579Z,101359.19
2022-10-06T09:42:02.788Z,101359.69
2022-10-06T09:46:29.375Z,101365.38
2022-10-06T09:50:30.977Z,101364.03
2022-10-06T09:54:34.869Z,101366.22
2022-10-06T09:58:39.147Z,101386.31
2022-10-06T10:02:41.184Z,101388.22
2022-10-06T10:06:43.269Z,101395.97
2022-10-06T10:10:45.065Z,101403.59
2022-10-06T10:14:46.727Z,101398.88
2022-10-06T10:18:50.916Z,101401.16
2022-10-06T10:22:53.507Z,101407.47
2022-10-06T10:27:04.374Z,101403.84
2022-10-06T10:31:13.957Z,101400.41
2022-10-06T10:35:25.033Z,101411.72
2022-10-06T10:39:42.235Z,101404.03
2022-10-06T10:43:51.395Z,101417.63
2022-10-06T10:47:54.123Z,101418.56
2022-10-06T10:52:07.163Z,101424.69
2022-10-06T10:56:11.923Z,101423.44
2022-10-06T11:00:22.958Z,101409.91
2022-10-06T11:04:26.220Z,101421.63
2022-10-06T11:09:09.751Z,101419.88
2022-10-06T11:13:29.391Z,101413.25
2022-10-06T11:17:44.239Z,101418.56
2022-10-06T11:22:02.668Z,101402.13
2022-10-06T11:26:27.049Z,101403.84
2022-10-06T11:30:30.538Z,101419.31
2022-10-06T11:34:32.568Z,101426.56
2022-10-06T11:38:47.541Z,101436.38
2022-10-06T11:43:01.099Z,101443.75
2022-10-06T11:47:10.805Z,101436.69
2022-10-06T11:51:25.259Z,101443.44
2022-10-06T11:55:28.949Z,101459.25
2022-10-06T11:59:31.686Z,101451.75
2022-10-06T12:03:44.617Z,101461.69
2022-10-06T12:07:52.565Z,101476.19
2022-10-06T12:12:03.349Z,101481.16
2022-10-06T12:21:09.983Z,101487.06
2022-10-06T12:25:25.134Z,101486.69
2022-10-06T12:29:50.701Z,101486.97
2022-10-06T12:33:52.883Z,101494.50
2022-10-06T12:37:58.325Z,101509.94
2022-10-06T12:42:01.727Z,101519.41
2022-10-06T12:46:12.297Z,101525.94
2022-10-06T12:50:22.586Z,101522.06
2022-10-06T12:54:35.532Z,101516.81
2022-10-06T12:58:37.410Z,101513.94
2022-10-06T13:02:43.989Z,101525.78
2022-10-06T13:06:49.726Z,101538.34
2022-10-06T13:10:52.055Z,101537.31
2022-10-06T13:15:17.245Z,101538.00
2022-10-06T13:19:26.645Z,101536.28
2022-10-06T13:23:31.331Z,101546.13
2022-10-06T13:27:33.267Z,101544.66
2022-10-06T13:31:36.673Z,101550.16
2022-10-06T13:35:38.800Z,101549.28
2022-10-06T13:39:40.928Z,101561.84
2022-10-06T13:43:46.364Z,101564.25
2022-10-06T13:47:48.268Z,101568.81
2022-10-06T13:51:53.006Z,101579.31
2022-10-06T13:56:32.968Z,101585.53
2022-10-06T14:00:51.939Z,101590.44
2022-10-06T14:05:19.403Z,101597.88
2022-10-06T14:09:27.136Z,101600.53
2022-10-06T14:13:37.785Z,101604.88
2022-10-06T14:17:40.962Z,101608.91
2022-10-06T14:21:45.104Z,101613.38
2022-10-06T14:25:49.312Z,101623.75
2022-10-06T14:29:51.140Z,101626.44
2022-10-06T14:33:55.073Z,101629.09
2022-10-06T14:37:56.751Z,101634.19
2022-10-06T14:41:58.755Z,101638.81
2022-10-06T14:46:03.970Z,101651.09
2022-10-06T14:50:08.509Z,101655.22
2022-10-06T14:54:11.323Z,101653.78
2022-10-06T14:58:13.322Z,101667.78
2022-10-06T15:02:15.729Z,101664.53
2022-10-06T15:06:36.649Z,101673.16
2022-10-06T15:10:39.097Z,101680.84
2022-10-06T15:14:40.998Z,101688.22
2022-10-06T15:18:43.039Z,101689.72
2022-10-06T15:22:44.860Z,101689.28
2022-10-06T15:27:05.999Z,101686.75
2022-10-06T15:31:08.123Z,101694.34
2022-10-06T15:35:10.133Z,101691.97
2022-10-06T15:39:13.955Z,101708.44
2022-10-06T15:43:35.608Z,101716.22
2022-10-06T15:47:37.640Z,101716.53
2022-10-06T15:51:45.115Z,101712.59
2022-10-06T15:55:47.024Z,101739.91
2022-10-06T15:59:49.050Z,101741.69
2022-10-06T16:03:51.416Z,101735.84
2022-10-06T16:07:53.216Z,101741.06
2022-10-06T16:11:56.455Z,101741.19
2022-10-06T16:15:58.229Z,101749.97
2022-10-06T16:20:00.089Z,101766.59
2022-10-06T16:24:02.353Z,101778.53
2022-10-06T16:28:04.270Z,101783.78
2022-10-06T16:32:06.012Z,101801.06
2022-10-06T16:36:09.402Z,101820.84
2022-10-06T16:40:11.145Z,101828.59
2022-10-06T16:44:13.141Z,101830.84
2022-10-06T16:48:41.555Z,101839.56
2022-10-06T16:52:43.481Z,101831.38
2022-10-06T16:56:47.818Z,101838.03
2022-10-06T17:00:57.406Z,101848.72
2022-10-06T17:04:59.109Z,101847.22
2022-10-06T17:09:01.413Z,101845.13
2022-10-06T17:13:03.100Z,101841.28
2022-10-06T17:17:05.690Z,101847.22
2022-10-06T17:21:32.218Z,101846.03
2022-10-06T17:25:32.099Z,101829.34
2022-10-06T17:29:33.736Z,101828.03
2022-10-06T17:33:38.847Z,101810.03
2022-10-06T17:37:40.532Z,101801.59
2022-10-06T17:41:44.169Z,101805.38
2022-10-06T17:45:47.808Z,101811.44
2022-10-06T17:49:49.878Z,101817.66
2022-10-06T17:53:54.270Z,101826.94
2022-10-06T17:57:58.618Z,101842.06
2022-10-06T18:02:02.771Z,101848.22
2022-10-06T18:06:06.615Z,101834.56
2022-10-06T18:10:27.353Z,101831.50
2022-10-06T18:14:34.344Z,101837.09
2022-10-06T18:18:36.043Z,101836.84
2022-10-06T18:22:38.157Z,101831.69
2022-10-06T18:26:42.006Z,101824.28
2022-10-06T18:31:08.984Z,101818.47
2022-10-06T18:39:33.549Z,101804.88
2022-10-06T18:43:35.567Z,101807.91
2022-10-06T18:47:56.054Z,101805.94
2022-10-06T18:51:58.608Z,101812.44
2022-10-06T18:56:00.383Z,101819.91
2022-10-06T19:00:04.050Z,101816.94
2022-10-06T19:04:09.731Z,101829.06
2022-10-06T19:08:11.999Z,101833.75
2022-10-06T19:12:14.116Z,101833.38
2022-10-06T19:16:17.581Z,101838.66
2022-10-06T19:20:19.298Z,101839.38
2022-10-06T19:24:21.908Z,101848.19
2022-10-06T19:28:23.532Z,101847.69
2022-10-06T19:32:28.239Z,101859.00
2022-10-06T19:36:29.987Z,101867.06
2022-10-06T19:40:31.965Z,101873.66
2022-10-06T19:44:34.046Z,101881.00
2022-10-06T19:48:36.866Z,101884.63
2022-10-06T19:52:38.818Z,101876.22
2022-10-06T19:56:41.417Z,101881.44
2022-10-06T20:00:43.452Z,101894.88
2022-10-06T20:04:45.499Z,101903.16
2022-10-06T20:08:47.335Z,101898.75
2022-10-06T20:12:49.191Z,101903.94
2022-10-06T20:16:52.601Z,101910.34
2022-10-06T20:20:58.800Z,101906.34
2022-10-06T20:25:01.965Z,101918.75
2022-10-06T20:29:07.118Z,101919.63
2022-10-06T20:33:09.460Z,101923.28
2022-10-06T20:37:11.483Z,101926.31
2022-10-06T20:41:17.692Z,101928.09
2022-10-06T20:45:20.117Z,101927.66
2022-10-06T20:49:22.038Z,101928.69
2022-10-06T20:53:31.462Z,101924.56
2022-10-06T20:57:34.033Z,101927.44
2022-10-06T21:01:37.346Z,101932.75
2022-10-06T21:05:39.124Z,101938.97
2022-10-06T21:09:41.087Z,101933.59
2022-10-06T21:13:50.363Z,101943.50
2022-10-06T21:17:52.266Z,101940.88
2022-10-06T21:21:55.434Z,101936.78
2022-10-06T21:26:01.305Z,101936.00
2022-10-06T21:30:03.192Z,101936.25
2022-10-06T21:34:05.236Z,101946.91
2022-10-06T21:38:07.232Z,101943.56
2022-10-06T21:42:09.200Z,101951.59
2022-10-06T21:46:27.147Z,101959.47
2022-10-06T21:50:30.170Z,101958.69
2022-10-06T21:54:31.937Z,101972.06
2022-10-06T21:58:34.039Z,101964.03
2022-10-06T22:02:35.860Z,101972.84
2022-10-06T22:06:37.744Z,101969.59
2022-10-06T22:10:39.332Z,101957.50
2022-10-06T22:14:41.230Z,101975.03
2022-10-06T22:18:43.038Z,101966.44
2022-10-06T22:22:44.928Z,101980.38
2022-10-06T22:26:47.929Z,101974.38
2022-10-06T22:30:50.308Z,101977.25
2022-10-06T22:34:51.955Z,101971.13
2022-10-06T22:38:55.085Z,101986.03
2022-10-06T22:42:56.697Z,101985.16
2022-10-06T22:46:58.586Z,101980.31
2022-10-06T22:51:00.836Z,101981.25
2022-10-06T22:55:02.661Z,101983.91
2022-10-06T22:59:04.348Z,101987.44
2022-10-06T23:03:06.664Z,101988.28
2022-10-06T23:07:13.161Z,101986.56
2022-10-06T23:11:17.883Z,101994.44
2022-10-06T23:15:19.764Z,101991.22
2022-10-06T23:19:21.834Z,101986.69
2022-10-06T23:23:23.524Z,101993.75
2022-10-06T23:27:25.812Z,101991.22
2022-10-06T23:31:28.841Z,101994.72
2022-10-06T23:35:30.820Z,101994.13
2022-10-06T23:39:32.570Z,101999.25
2022-10-06T23:43:34.987Z,101996.75
2022-10-06T23:47:36.531Z,102002.03
2022-10-06T23:51:38.550Z,102002.06
2022-10-06T23:55:40.190Z,102008.94
2022-10-06T23:59:42.316Z,102009.81
